createdAt,value
2022-08-21T00:02:26.380Z,993.8
2022-08-21T00:04:59.326Z,993.8
2022-08-21T00:07:31.775Z,993.8
2022-08-21T00:10:04.773Z,993.8
2022-08-21T00:12:37.546Z,993.9
2022-08-21T00:15:16.333Z,993.8
2022-08-21T00:17:47.690Z,993.8
2022-08-21T00:20:19.777Z,993.8
2022-08-21T00:22:52.844Z,993.8
2022-08-21T00:25:27.304Z,993.8
2022-08-21T00:27:59.213Z,993.9
2022-08-21T00:30:33.212Z,993.9
2022-08-21T00:33:05.836Z,993.9
2022-08-21T00:35:39.603Z,994
2022-08-21T00:38:12.409Z,994
2022-08-21T00:40:45.139Z,994
2022-08-21T00:43:17.423Z,994
2022-08-21T00:45:51.596Z,994
2022-08-21T00:48:23.999Z,994
2022-08-21T00:50:59.106Z,994
2022-08-21T00:53:31.410Z,994
2022-08-21T00:56:07.377Z,994
2022-08-21T00:58:44.799Z,994
2022-08-21T01:01:20.514Z,994
2022-08-21T01:03:51.819Z,994
2022-08-21T01:06:22.045Z,993.9
2022-08-21T01:08:55.479Z,994
2022-08-21T01:11:27.971Z,994
2022-08-21T01:13:59.063Z,994
2022-08-21T01:16:32.515Z,993.9
2022-08-21T01:19:04.771Z,993.8
2022-08-21T01:21:36.011Z,993.7
2022-08-21T01:24:08.397Z,993.7
2022-08-21T01:26:41.268Z,993.7
2022-08-21T01:29:13.779Z,993.7
2022-08-21T01:31:47.977Z,993.7
2022-08-21T01:34:22.316Z,993.7
2022-08-21T01:36:55.575Z,993.7
2022-08-21T01:39:28.541Z,993.7
2022-08-21T01:42:01.272Z,993.7
2022-08-21T01:44:34.114Z,993.7
2022-08-21T01:47:07.081Z,993.7
2022-08-21T01:49:39.403Z,993.7
2022-08-21T01:52:12.223Z,993.6
2022-08-21T01:54:56.261Z,993.5
2022-08-21T01:57:30.143Z,993.5
2022-08-21T02:00:04.312Z,993.5
2022-08-21T02:02:35.903Z,993.5
2022-08-21T02:05:08.704Z,993.5
2022-08-21T02:07:41.489Z,993.4
2022-08-21T02:10:14.187Z,993.4
2022-08-21T02:12:49.039Z,993.4
2022-08-21T02:15:22.132Z,993.4
2022-08-21T02:17:54.737Z,993.4
2022-08-21T02:20:27.064Z,993.4
2022-08-21T02:23:01.001Z,993.4
2022-08-21T02:25:36.502Z,993.3
2022-08-21T02:28:08.262Z,993.3
2022-08-21T02:30:40.961Z,993.3
2022-08-21T02:33:13.302Z,993.3
2022-08-21T02:35:46.300Z,993.4
2022-08-21T02:38:17.021Z,993.4
2022-08-21T02:40:52.372Z,993.4
2022-08-21T02:43:24.258Z,993.4
2022-08-21T02:46:00.010Z,993.3
2022-08-21T02:48:31.585Z,993.4
2022-08-21T02:51:04.626Z,993.3
2022-08-21T02:53:37.180Z,993.4
2022-08-21T02:56:10.033Z,993.3
2022-08-21T02:58:43.082Z,993.3
2022-08-21T03:01:15.829Z,993.3
2022-08-21T03:03:48.143Z,993.3
2022-08-21T03:06:23.843Z,993.3
2022-08-21T03:08:58.965Z,993.3
2022-08-21T03:11:31.661Z,993.3
2022-08-21T03:14:04.291Z,993.2
2022-08-21T03:16:36.995Z,993.2
2022-08-21T03:19:09.757Z,993.3
2022-08-21T03:21:42.133Z,993.3
2022-08-21T03:24:21.619Z,993.3
2022-08-21T03:26:52.683Z,993.2
2022-08-21T03:29:25.459Z,993.2
2022-08-21T03:31:58.319Z,993.2
2022-08-21T03:34:30.829Z,993.2
2022-08-21T03:37:03.493Z,993.2
2022-08-21T03:39:37.103Z,993.2
2022-08-21T03:42:09.570Z,993.2
2022-08-21T03:44:42.372Z,993.2
2022-08-21T03:47:14.765Z,993.2
2022-08-21T03:49:47.871Z,993.2
2022-08-21T03:52:20.551Z,993.2
2022-08-21T03:54:53.437Z,993.2
2022-08-21T03:57:31.013Z,993.3
2022-08-21T04:00:07.158Z,993.3
2022-08-21T04:02:40.069Z,993.3
2022-08-21T04:05:12.947Z,993.2
2022-08-21T04:07:47.214Z,993.2
2022-08-21T04:10:20.664Z,993.2
2022-08-21T04:12:53.354Z,993.2
2022-08-21T04:15:27.414Z,993.2
2022-08-21T04:18:02.375Z,993.3
2022-08-21T04:20:34.718Z,993.3
2022-08-21T04:23:07.553Z,993.3
2022-08-21T04:25:41.320Z,993.3
2022-08-21T04:28:14.938Z,993.3
2022-08-21T04:30:47.600Z,993.3
2022-08-21T04:33:21.228Z,993.3
2022-08-21T04:35:53.657Z,993.3
2022-08-21T04:38:44.818Z,993.4
2022-08-21T04:41:29.373Z,993.4
2022-08-21T04:44:00.209Z,993.4
2022-08-21T04:46:33.095Z,993.4
2022-08-21T04:49:07.405Z,993.4
2022-08-21T04:51:39.621Z,993.5
2022-08-21T04:54:12.378Z,993.5
2022-08-21T04:56:44.987Z,993.5
2022-08-21T04:59:17.767Z,993.5
2022-08-21T05:01:51.423Z,993.5
2022-08-21T05:04:24.743Z,993.5
2022-08-21T05:06:57.801Z,993.5
2022-08-21T05:09:30.296Z,993.5
2022-08-21T05:12:03.070Z,993.5
2022-08-21T05:14:35.650Z,993.5
2022-08-21T05:17:08.786Z,993.5
2022-08-21T05:19:41.520Z,993.5
2022-08-21T05:22:14.750Z,993.5
2022-08-21T05:24:47.546Z,993.6
2022-08-21T05:27:31.823Z,993.6
2022-08-21T05:30:03.454Z,993.6
2022-08-21T05:32:36.082Z,993.6
2022-08-21T05:35:13.896Z,993.6
2022-08-21T05:37:45.198Z,993.6
2022-08-21T05:40:25.805Z,993.6
2022-08-21T05:42:59.168Z,993.5
2022-08-21T05:45:45.231Z,993.5
2022-08-21T05:48:15.993Z,993.5
2022-08-21T05:50:49.865Z,993.5
2022-08-21T05:53:22.607Z,993.4
2022-08-21T05:55:55.425Z,993.5
2022-08-21T05:58:28.119Z,993.5
2022-08-21T06:01:01.005Z,993.5
2022-08-21T06:03:33.954Z,993.4
2022-08-21T06:06:06.430Z,993.4
2022-08-21T06:08:38.665Z,993.4
2022-08-21T06:11:10.907Z,993.5
2022-08-21T06:13:41.461Z,993.5
2022-08-21T06:16:17.306Z,993.5
2022-08-21T06:18:46.999Z,993.6
2022-08-21T06:21:17.675Z,993.6
2022-08-21T06:23:50.250Z,993.6
2022-08-21T06:26:22.828Z,993.6
2022-08-21T06:28:57.861Z,993.6
2022-08-21T06:31:29.633Z,993.6
2022-08-21T06:34:02.557Z,993.6
2022-08-21T06:36:43.584Z,993.6
2022-08-21T06:39:33.213Z,993.6
2022-08-21T06:42:11.365Z,993.7
2022-08-21T06:44:50.857Z,993.6
2022-08-21T06:47:21.437Z,993.6
2022-08-21T06:49:54.310Z,993.6
2022-08-21T06:52:30.059Z,993.6
2022-08-21T06:55:03.717Z,993.5
2022-08-21T06:57:39.391Z,993.5
2022-08-21T07:00:14.253Z,993.6
2022-08-21T07:02:48.909Z,993.6
2022-08-21T07:05:22.417Z,993.6
2022-08-21T07:07:54.632Z,993.6
2022-08-21T07:10:42.421Z,993.6
2022-08-21T07:13:18.075Z,993.5
2022-08-21T07:15:49.239Z,993.5
2022-08-21T07:18:24.549Z,993.5
2022-08-21T07:20:56.110Z,993.5
2022-08-21T07:23:29.972Z,993.4
2022-08-21T07:26:05.308Z,993.5
2022-08-21T07:28:37.250Z,993.5
2022-08-21T07:31:13.015Z,993.4
2022-08-21T07:33:45.309Z,993.4
2022-08-21T07:36:17.779Z,993.4
2022-08-21T07:38:53.805Z,993.4
2022-08-21T07:41:25.486Z,993.4
2022-08-21T07:43:56.070Z,993.5
2022-08-21T07:46:31.663Z,993.5
2022-08-21T07:49:03.569Z,993.4
2022-08-21T07:51:36.639Z,993.5
2022-08-21T07:54:08.288Z,993.5
2022-08-21T07:56:41.349Z,993.5
2022-08-21T07:59:14.569Z,993.4
2022-08-21T08:01:47.283Z,993.4
2022-08-21T08:04:27.181Z,993.4
2022-08-21T08:06:58.565Z,993.4
2022-08-21T08:09:32.603Z,993.4
2022-08-21T08:12:05.014Z,993.4
2022-08-21T08:14:41.871Z,993.4
2022-08-21T08:17:13.054Z,993.4
2022-08-21T08:19:45.961Z,993.4
2022-08-21T08:22:18.240Z,993.4
2022-08-21T08:24:50.826Z,993.4
2022-08-21T08:27:23.528Z,993.4
2022-08-21T08:29:57.670Z,993.4
2022-08-21T08:32:30.151Z,993.3
2022-08-21T08:35:01.077Z,993.3
2022-08-21T08:37:52.385Z,993.4
2022-08-21T08:40:49.152Z,993.3
2022-08-21T08:43:35.069Z,993.3
2022-08-21T08:46:14.440Z,993.3
2022-08-21T08:48:55.548Z,993.4
2022-08-21T08:51:25.073Z,993.3
2022-08-21T08:54:14.098Z,993.3
2022-08-21T08:56:58.189Z,993.3
2022-08-21T08:59:34.663Z,993.2
2022-08-21T09:02:10.218Z,993.2
2022-08-21T09:04:41.274Z,993.2
2022-08-21T09:07:13.932Z,993.2
2022-08-21T09:09:47.719Z,993.2
2022-08-21T09:12:20.269Z,993.1
2022-08-21T09:14:53.056Z,993.1
2022-08-21T09:17:25.823Z,993.1
2022-08-21T09:20:08.610Z,993.1
2022-08-21T09:22:38.885Z,993.1
2022-08-21T09:25:14.444Z,993.1
2022-08-21T09:27:46.791Z,993.1
2022-08-21T09:30:19.999Z,993.1
2022-08-21T09:32:53.313Z,993.1
2022-08-21T09:35:26.057Z,993.1
2022-08-21T09:38:01.273Z,993.1
2022-08-21T09:40:34.808Z,992.9
2022-08-21T09:43:10.014Z,992.9
2022-08-21T09:45:41.860Z,992.9
2022-08-21T09:48:13.975Z,992.9
2022-08-21T09:50:47.303Z,992.9
2022-08-21T09:53:25.557Z,992.8
2022-08-21T09:55:57.527Z,992.8
2022-08-21T09:58:30.115Z,992.8
2022-08-21T10:01:03.273Z,992.9
2022-08-21T10:03:35.933Z,992.9
2022-08-21T10:06:12.292Z,992.9
2022-08-21T10:08:43.885Z,992.9
2022-08-21T10:11:16.208Z,992.9
2022-08-21T10:13:46.681Z,992.9
2022-08-21T10:16:18.865Z,993
2022-08-21T10:18:50.895Z,993.1
2022-08-21T10:21:23.853Z,993.1
2022-08-21T10:23:56.465Z,993.2
2022-08-21T10:26:28.866Z,993.3
2022-08-21T10:29:01.162Z,993.2
2022-08-21T10:31:33.232Z,993.2
2022-08-21T10:34:05.310Z,993.3
2022-08-21T10:36:36.751Z,993.3
2022-08-21T10:39:37.840Z,993.3
2022-08-21T10:42:11.290Z,993.3
2022-08-21T10:44:45.481Z,993.3
2022-08-21T10:47:22.330Z,993.3
2022-08-21T10:49:54.820Z,993.4
2022-08-21T10:52:26.842Z,993.4
2022-08-21T10:54:59.269Z,993.4
2022-08-21T10:57:35.214Z,993.4
2022-08-21T11:00:07.163Z,993.4
2022-08-21T11:02:39.285Z,993.4
2022-08-21T11:05:11.658Z,993.4
2022-08-21T11:07:49.927Z,993.4
2022-08-21T11:10:21.560Z,993.4
2022-08-21T11:12:54.164Z,993.4
2022-08-21T11:15:31.034Z,993.4
2022-08-21T11:18:05.127Z,993.4
2022-08-21T11:20:37.135Z,993.4
2022-08-21T11:23:12.139Z,993.4
2022-08-21T11:25:43.766Z,993.4
2022-08-21T11:28:17.134Z,993.3
2022-08-21T11:30:48.231Z,993.3
2022-08-21T11:33:20.740Z,993.4
2022-08-21T11:35:56.560Z,993.3
2022-08-21T11:38:27.920Z,993.3
2022-08-21T11:41:04.153Z,993.3
2022-08-21T11:43:35.686Z,993.3
2022-08-21T11:46:08.942Z,993.3
2022-08-21T11:48:41.509Z,993.3
2022-08-21T11:51:16.149Z,993.3
2022-08-21T11:53:55.445Z,993.3
2022-08-21T11:56:26.283Z,993.2
2022-08-21T11:59:01.936Z,993.2
2022-08-21T12:01:38.529Z,993.2
2022-08-21T12:04:12.862Z,993.2
2022-08-21T12:06:45.200Z,993.2
2022-08-21T12:09:18.850Z,993.2
2022-08-21T12:11:54.286Z,993.2
2022-08-21T12:14:28.044Z,993.2
2022-08-21T12:17:00.782Z,993.1
2022-08-21T12:19:33.404Z,993.1
2022-08-21T12:22:06.044Z,993.1
2022-08-21T12:24:38.476Z,993.1
2022-08-21T12:27:10.921Z,993
2022-08-21T12:29:44.008Z,993.1
2022-08-21T12:32:20.457Z,993
2022-08-21T12:34:55.512Z,993
2022-08-21T12:37:26.425Z,993
2022-08-21T12:39:58.879Z,993
2022-08-21T12:42:31.106Z,993
2022-08-21T12:45:04.020Z,993.1
2022-08-21T12:47:36.320Z,993.1
2022-08-21T12:50:09.729Z,993.1
2022-08-21T12:52:41.828Z,993.1
2022-08-21T12:55:14.366Z,993.1
2022-08-21T12:57:47.117Z,993.2
2022-08-21T13:00:22.541Z,993.2
2022-08-21T13:02:59.594Z,993.2
2022-08-21T13:05:31.621Z,993.2
2022-08-21T13:08:03.631Z,993.2
2022-08-21T13:10:37.863Z,993.2
2022-08-21T13:13:29.026Z,993.1
2022-08-21T13:15:59.900Z,993.2
2022-08-21T13:18:39.437Z,993.2
2022-08-21T13:21:24.732Z,993.2
2022-08-21T13:24:52.806Z,993.3
2022-08-21T13:27:23.312Z,993.3
2022-08-21T13:29:55.926Z,993.2
2022-08-21T13:32:32.661Z,993.3
2022-08-21T13:35:03.219Z,993.3
2022-08-21T13:37:36.346Z,993.2
2022-08-21T13:40:09.667Z,993.3
2022-08-21T13:42:41.460Z,993.2
2022-08-21T13:45:14.548Z,993.2
2022-08-21T13:47:49.356Z,993.2
2022-08-21T13:50:29.270Z,993.1
2022-08-21T13:53:02.703Z,993.2
2022-08-21T13:55:38.822Z,993.1
2022-08-21T13:58:12.118Z,993.1
2022-08-21T14:00:44.724Z,993.1
2022-08-21T14:03:18.424Z,993.1
2022-08-21T14:05:53.540Z,993
2022-08-21T14:08:32.005Z,993
2022-08-21T14:11:03.470Z,993
2022-08-21T14:13:43.088Z,993.1
2022-08-21T14:16:13.254Z,993
2022-08-21T14:19:13.315Z,993.1
2022-08-21T14:21:45.345Z,993.1
2022-08-21T14:24:25.100Z,993.1
2022-08-21T14:26:54.623Z,993.1
2022-08-21T14:29:27.189Z,993.1
2022-08-21T14:32:26.620Z,993.1
2022-08-21T14:35:00.296Z,993.1
2022-08-21T14:37:32.008Z,993
2022-08-21T14:40:07.099Z,993
2022-08-21T14:42:41.627Z,993
2022-08-21T14:45:14.803Z,993.1
2022-08-21T14:47:50.001Z,993.1
2022-08-21T14:50:22.145Z,993.1
2022-08-21T14:53:12.623Z,993.1
2022-08-21T14:55:43.338Z,993.2
2022-08-21T14:58:15.878Z,993.2
2022-08-21T15:00:49.005Z,993.2
2022-08-21T15:03:21.286Z,993.2
2022-08-21T15:05:55.491Z,993.1
2022-08-21T15:08:27.421Z,993.1
2022-08-21T15:11:43.886Z,993.2
2022-08-21T15:14:14.284Z,993.2
2022-08-21T15:16:45.156Z,993.2
2022-08-21T15:19:20.465Z,993.2
2022-08-21T15:21:53.072Z,993.1
2022-08-21T15:24:25.276Z,993.2
2022-08-21T15:26:55.711Z,993.2
2022-08-21T15:29:35.942Z,993.1
2022-08-21T15:32:07.310Z,993.1
2022-08-21T15:34:39.501Z,993
2022-08-21T15:37:13.443Z,993.1
2022-08-21T15:39:55.364Z,993.1
2022-08-21T15:42:32.052Z,993.1
2022-08-21T15:45:04.717Z,993.1
2022-08-21T15:47:37.448Z,993.1
2022-08-21T15:50:10.048Z,993.2
2022-08-21T15:52:41.730Z,993.1
2022-08-21T15:55:14.325Z,993.1
2022-08-21T19:36:27.258Z,993.5
2022-08-21T19:38:55.239Z,993.5
2022-08-21T19:41:28.343Z,993.4
2022-08-21T19:44:03.895Z,993.4
2022-08-21T19:46:36.988Z,993.3
2022-08-21T19:49:12.008Z,993.3
2022-08-21T19:51:46.206Z,993.3
2022-08-21T19:54:19.564Z,993.3
2022-08-21T19:56:51.621Z,993.4
2022-08-21T19:59:25.816Z,993.4
2022-08-21T20:02:01.308Z,993.4
2022-08-21T20:04:33.719Z,993.5
